sensor_id;sensor_type;location;lat;lon;timestamp;pressure;altitude;pressure_sealevel;temperature;humidity
51999;BME280;38015;50.924;11.598;2023-03-13T00:00:30;98683.57;;;21.86;24.71
51999;BME280;38015;50.924;11.598;2023-03-13T00:03:00;98681.26;;;21.72;24.95
51999;BME280;38015;50.924;11.598;2023-03-13T00:05:35;98682.44;;;21.86;24.74
51999;BME280;38015;50.924;11.598;2023-03-13T00:08:02;98683.15;;;21.84;24.76
51999;BME280;38015;50.924;11.598;2023-03-13T00:10:35;98679.92;;;21.80;24.80
51999;BME280;38015;50.924;11.598;2023-03-13T00:13:03;98673.76;;;21.85;24.74
51999;BME280;38015;50.924;11.598;2023-03-13T00:15:33;98675.55;;;21.91;24.65
51999;BME280;38015;50.924;11.598;2023-03-13T00:18:04;98674.03;;;21.81;24.83
51999;BME280;38015;50.924;11.598;2023-03-13T00:20:34;98674.37;;;21.84;24.76
51999;BME280;38015;50.924;11.598;2023-03-13T00:23:05;98677.87;;;21.89;24.71
51999;BME280;38015;50.924;11.598;2023-03-13T00:25:35;98668.84;;;21.73;24.97
51999;BME280;38015;50.924;11.598;2023-03-13T00:28:05;98663.90;;;21.84;24.79
51999;BME280;38015;50.924;11.598;2023-03-13T00:30:36;98662.56;;;21.86;24.74
51999;BME280;38015;50.924;11.598;2023-03-13T00:33:06;98660.08;;;21.84;24.78
51999;BME280;38015;50.924;11.598;2023-03-13T00:35:37;98661.57;;;21.83;24.78
51999;BME280;38015;50.924;11.598;2023-03-13T00:38:07;98664.27;;;21.89;24.70
51999;BME280;38015;50.924;11.598;2023-03-13T00:40:38;98655.72;;;21.78;24.91
51999;BME280;38015;50.924;11.598;2023-03-13T00:43:08;98657.52;;;21.77;24.89
51999;BME280;38015;50.924;11.598;2023-03-13T00:45:39;98653.87;;;21.95;24.61
51999;BME280;38015;50.924;11.598;2023-03-13T00:48:09;98654.58;;;21.92;24.66
51999;BME280;38015;50.924;11.598;2023-03-13T00:50:40;98654.71;;;21.85;24.75
51999;BME280;38015;50.924;11.598;2023-03-13T00:53:10;98657.33;;;21.89;24.64
51999;BME280;38015;50.924;11.598;2023-03-13T00:58:12;98648.24;;;21.93;24.62
51999;BME280;38015;50.924;11.598;2023-03-13T01:00:42;98642.58;;;21.83;24.78
51999;BME280;38015;50.924;11.598;2023-03-13T01:03:12;98638.40;;;21.85;24.74
51999;BME280;38015;50.924;11.598;2023-03-13T01:05:43;98632.41;;;21.86;24.74
51999;BME280;38015;50.924;11.598;2023-03-13T01:08:13;98627.74;;;21.87;24.72
51999;BME280;38015;50.924;11.598;2023-03-13T01:10:44;98630.02;;;21.71;25.01
51999;BME280;38015;50.924;11.598;2023-03-13T01:13:14;98625.43;;;21.86;24.77
51999;BME280;38015;50.924;11.598;2023-03-13T01:15:44;98620.94;;;21.87;24.75
51999;BME280;38015;50.924;11.598;2023-03-13T01:18:15;98617.65;;;21.82;24.85
51999;BME280;38015;50.924;11.598;2023-03-13T01:20:45;98618.09;;;21.81;24.89
51999;BME280;38015;50.924;11.598;2023-03-13T01:23:16;98616.71;;;21.87;24.81
51999;BME280;38015;50.924;11.598;2023-03-13T01:25:46;98613.61;;;21.87;24.77
51999;BME280;38015;50.924;11.598;2023-03-13T01:28:18;98618.30;;;21.88;24.80
51999;BME280;38015;50.924;11.598;2023-03-13T01:30:47;98615.41;;;21.86;24.85
51999;BME280;38015;50.924;11.598;2023-03-13T01:33:18;98610.18;;;21.80;24.97
51999;BME280;38015;50.924;11.598;2023-03-13T01:35:48;98613.16;;;21.81;24.96
51999;BME280;38015;50.924;11.598;2023-03-13T01:38:19;98608.90;;;21.81;24.99
51999;BME280;38015;50.924;11.598;2023-03-13T01:40:49;98604.39;;;21.81;25.00
51999;BME280;38015;50.924;11.598;2023-03-13T01:43:21;98603.01;;;21.85;24.97
51999;BME280;38015;50.924;11.598;2023-03-13T01:45:57;98601.22;;;21.84;24.99
51999;BME280;38015;50.924;11.598;2023-03-13T01:48:27;98598.36;;;21.82;25.03
51999;BME280;38015;50.924;11.598;2023-03-13T01:50:52;98596.72;;;21.90;24.93
51999;BME280;38015;50.924;11.598;2023-03-13T01:53:24;98594.39;;;21.87;24.95
51999;BME280;38015;50.924;11.598;2023-03-13T01:55:53;98589.37;;;21.84;24.98
51999;BME280;38015;50.924;11.598;2023-03-13T01:58:24;98588.22;;;21.85;25.01
51999;BME280;38015;50.924;11.598;2023-03-13T02:00:54;98577.71;;;21.75;25.18
51999;BME280;38015;50.924;11.598;2023-03-13T02:03:27;98572.21;;;21.81;25.08
51999;BME280;38015;50.924;11.598;2023-03-13T02:05:55;98564.64;;;21.79;25.14
51999;BME280;38015;50.924;11.598;2023-03-13T02:08:30;98552.73;;;21.77;25.18
51999;BME280;38015;50.924;11.598;2023-03-13T02:11:04;98543.85;;;21.73;25.23
51999;BME280;38015;50.924;11.598;2023-03-13T02:13:27;98545.30;;;21.81;25.11
51999;BME280;38015;50.924;11.598;2023-03-13T02:15:56;98544.55;;;21.71;25.27
51999;BME280;38015;50.924;11.598;2023-03-13T02:18:27;98542.23;;;21.75;25.24
51999;BME280;38015;50.924;11.598;2023-03-13T02:21:06;98535.36;;;21.81;25.16
51999;BME280;38015;50.924;11.598;2023-03-13T02:23:31;98530.40;;;21.84;25.09
51999;BME280;38015;50.924;11.598;2023-03-13T02:25:59;98523.49;;;21.60;25.48
51999;BME280;38015;50.924;11.598;2023-03-13T02:28:31;98522.44;;;21.81;25.17
51999;BME280;38015;50.924;11.598;2023-03-13T02:31:00;98514.17;;;21.88;25.06
51999;BME280;38015;50.924;11.598;2023-03-13T02:33:32;98520.14;;;21.74;25.29
51999;BME280;38015;50.924;11.598;2023-03-13T02:36:01;98515.38;;;21.82;25.16
51999;BME280;38015;50.924;11.598;2023-03-13T02:38:37;98509.38;;;21.84;25.11
51999;BME280;38015;50.924;11.598;2023-03-13T02:41:05;98508.05;;;21.75;25.29
51999;BME280;38015;50.924;11.598;2023-03-13T02:43:33;98503.15;;;21.76;25.25
51999;BME280;38015;50.924;11.598;2023-03-13T02:46:06;98505.83;;;21.73;25.33
51999;BME280;38015;50.924;11.598;2023-03-13T02:48:34;98498.34;;;21.81;25.20
51999;BME280;38015;50.924;11.598;2023-03-13T02:51:07;98500.97;;;21.88;25.11
51999;BME280;38015;50.924;11.598;2023-03-13T02:53:34;98505.03;;;21.80;25.23
51999;BME280;38015;50.924;11.598;2023-03-13T02:56:04;98500.60;;;21.84;25.18
51999;BME280;38015;50.924;11.598;2023-03-13T02:58:38;98493.87;;;21.78;25.29
51999;BME280;38015;50.924;11.598;2023-03-13T03:01:05;98491.86;;;21.78;25.24
51999;BME280;38015;50.924;11.598;2023-03-13T03:03:36;98490.54;;;21.83;25.15
51999;BME280;38015;50.924;11.598;2023-03-13T03:06:07;98485.85;;;21.88;25.12
51999;BME280;38015;50.924;11.598;2023-03-13T03:08:37;98472.98;;;21.78;25.28
51999;BME280;38015;50.924;11.598;2023-03-13T03:11:09;98465.71;;;21.73;25.32
51999;BME280;38015;50.924;11.598;2023-03-13T03:13:38;98456.59;;;21.61;25.53
51999;BME280;38015;50.924;11.598;2023-03-13T03:16:10;98453.76;;;21.80;25.25
51999;BME280;38015;50.924;11.598;2023-03-13T03:18:39;98454.36;;;21.87;25.15
51999;BME280;38015;50.924;11.598;2023-03-13T03:21:09;98453.99;;;21.69;25.43
51999;BME280;38015;50.924;11.598;2023-03-13T03:23:40;98450.22;;;21.76;25.35
51999;BME280;38015;50.924;11.598;2023-03-13T03:26:10;98444.64;;;21.78;25.31
51999;BME280;38015;50.924;11.598;2023-03-13T03:28:40;98433.47;;;21.69;25.47
51999;BME280;38015;50.924;11.598;2023-03-13T03:31:12;98428.68;;;21.86;25.20
51999;BME280;38015;50.924;11.598;2023-03-13T03:33:42;98424.51;;;21.74;25.41
51999;BME280;38015;50.924;11.598;2023-03-13T03:36:13;98414.74;;;21.88;25.19
51999;BME280;38015;50.924;11.598;2023-03-13T03:38:43;98417.49;;;21.82;25.30
51999;BME280;38015;50.924;11.598;2023-03-13T03:41:14;98410.96;;;21.85;25.27
51999;BME280;38015;50.924;11.598;2023-03-13T03:43:44;98404.95;;;21.80;25.33
51999;BME280;38015;50.924;11.598;2023-03-13T03:46:14;98402.26;;;21.76;25.42
51999;BME280;38015;50.924;11.598;2023-03-13T03:48:44;98395.93;;;21.78;25.39
51999;BME280;38015;50.924;11.598;2023-03-13T03:51:15;98392.56;;;21.79;25.37
51999;BME280;38015;50.924;11.598;2023-03-13T03:53:46;98384.48;;;21.73;25.51
51999;BME280;38015;50.924;11.598;2023-03-13T03:56:16;98370.52;;;21.78;25.42
51999;BME280;38015;50.924;11.598;2023-03-13T03:58:46;98359.08;;;21.85;25.28
51999;BME280;38015;50.924;11.598;2023-03-13T04:01:17;98345.30;;;21.86;25.26
51999;BME280;38015;50.924;11.598;2023-03-13T04:03:48;98351.27;;;21.80;25.35
51999;BME280;38015;50.924;11.598;2023-03-13T04:06:18;98351.38;;;21.86;25.28
51999;BME280;38015;50.924;11.598;2023-03-13T04:08:48;98344.96;;;21.79;25.39
51999;BME280;38015;50.924;11.598;2023-03-13T04:11:19;98341.83;;;21.86;25.28
51999;BME280;38015;50.924;11.598;2023-03-13T04:13:49;98340.20;;;21.77;25.35
51999;BME280;38015;50.924;11.598;2023-03-13T04:16:19;98335.65;;;21.80;25.36
51999;BME280;38015;50.924;11.598;2023-03-13T04:18:51;98329.34;;;21.82;25.33
51999;BME280;38015;50.924;11.598;2023-03-13T04:21:20;98325.62;;;21.82;25.34
51999;BME280;38015;50.924;11.598;2023-03-13T04:23:51;98311.63;;;21.83;25.32
51999;BME280;38015;50.924;11.598;2023-03-13T04:26:21;98306.56;;;21.81;25.39
51999;BME280;38015;50.924;11.598;2023-03-13T04:28:52;98294.33;;;21.77;25.45
51999;BME280;38015;50.924;11.598;2023-03-13T04:31:22;98283.91;;;21.73;25.55
51999;BME280;38015;50.924;11.598;2023-03-13T04:33:55;98281.94;;;21.80;25.44
51999;BME280;38015;50.924;11.598;2023-03-13T04:36:23;98269.09;;;21.81;25.45
51999;BME280;38015;50.924;11.598;2023-03-13T04:38:54;98268.17;;;21.85;25.40
51999;BME280;38015;50.924;11.598;2023-03-13T04:41:24;98257.98;;;21.82;25.47
51999;BME280;38015;50.924;11.598;2023-03-13T04:43:55;98256.77;;;21.80;25.54
51999;BME280;38015;50.924;11.598;2023-03-13T04:46:25;98256.33;;;21.78;25.64
51999;BME280;38015;50.924;11.598;2023-03-13T04:48:56;98246.83;;;21.76;25.71
51999;BME280;38015;50.924;11.598;2023-03-13T04:51:26;98238.62;;;21.76;25.76
51999;BME280;38015;50.924;11.598;2023-03-13T04:53:59;98240.27;;;21.82;25.72
51999;BME280;38015;50.924;11.598;2023-03-13T04:56:28;98234.61;;;21.75;25.86
51999;BME280;38015;50.924;11.598;2023-03-13T04:58:58;98239.29;;;21.75;25.90
51999;BME280;38015;50.924;11.598;2023-03-13T05:01:28;98230.66;;;21.67;26.10
51999;BME280;38015;50.924;11.598;2023-03-13T05:03:59;98222.74;;;21.79;25.93
51999;BME280;38015;50.924;11.598;2023-03-13T05:06:29;98224.95;;;21.76;26.01
51999;BME280;38015;50.924;11.598;2023-03-13T05:09:00;98214.09;;;21.74;26.05
51999;BME280;38015;50.924;11.598;2023-03-13T05:11:30;98205.13;;;21.77;26.00
51999;BME280;38015;50.924;11.598;2023-03-13T05:14:00;98216.56;;;21.67;26.18
51999;BME280;38015;50.924;11.598;2023-03-13T05:16:31;98214.09;;;21.74;26.10
51999;BME280;38015;50.924;11.598;2023-03-13T05:19:01;98207.22;;;21.79;26.03
51999;BME280;38015;50.924;11.598;2023-03-13T05:21:32;98207.51;;;21.77;26.10
51999;BME280;38015;50.924;11.598;2023-03-13T05:24:03;98206.16;;;21.85;26.00
51999;BME280;38015;50.924;11.598;2023-03-13T05:26:34;98191.99;;;21.37;26.77
51999;BME280;38015;50.924;11.598;2023-03-13T05:29:03;98173.08;;;21.69;26.28
51999;BME280;38015;50.924;11.598;2023-03-13T05:31:34;98167.19;;;21.76;26.19
51999;BME280;38015;50.924;11.598;2023-03-13T05:34:04;98168.95;;;21.30;26.98
51999;BME280;38015;50.924;11.598;2023-03-13T05:36:35;98165.71;;;21.57;26.50
51999;BME280;38015;50.924;11.598;2023-03-13T05:39:05;98168.02;;;21.67;26.35
51999;BME280;38015;50.924;11.598;2023-03-13T05:41:36;98173.38;;;21.48;26.68
51999;BME280;38015;50.924;11.598;2023-03-13T05:44:06;98168.63;;;21.67;26.36
51999;BME280;38015;50.924;11.598;2023-03-13T05:46:37;98157.31;;;21.73;26.29
51999;BME280;38015;50.924;11.598;2023-03-13T05:49:07;98145.31;;;21.69;26.35
51999;BME280;38015;50.924;11.598;2023-03-13T05:51:38;98139.66;;;21.70;26.32
51999;BME280;38015;50.924;11.598;2023-03-13T05:54:08;98123.49;;;21.65;26.36
51999;BME280;38015;50.924;11.598;2023-03-13T05:56:38;98135.21;;;21.69;26.31
51999;BME280;38015;50.924;11.598;2023-03-13T05:59:10;98121.85;;;21.65;26.41
51999;BME280;38015;50.924;11.598;2023-03-13T06:01:39;98128.18;;;21.58;26.49
51999;BME280;38015;50.924;11.598;2023-03-13T06:04:10;98120.35;;;21.84;26.06
51999;BME280;38015;50.924;11.598;2023-03-13T06:06:40;98134.63;;;21.63;26.35
51999;BME280;38015;50.924;11.598;2023-03-13T06:09:10;98125.11;;;21.51;26.59
51999;BME280;38015;50.924;11.598;2023-03-13T06:11:41;98141.63;;;21.76;26.20
51999;BME280;38015;50.924;11.598;2023-03-13T06:14:12;98117.56;;;21.79;26.10
51999;BME280;38015;50.924;11.598;2023-03-13T06:16:42;98116.39;;;21.91;25.92
51999;BME280;38015;50.924;11.598;2023-03-13T06:19:14;98113.51;;;21.78;26.17
51999;BME280;38015;50.924;11.598;2023-03-13T06:21:43;98115.01;;;21.81;26.11
51999;BME280;38015;50.924;11.598;2023-03-13T06:24:14;98104.60;;;21.65;26.43
51999;BME280;38015;50.924;11.598;2023-03-13T06:26:48;98114.21;;;21.72;26.32
51999;BME280;38015;50.924;11.598;2023-03-13T06:29:15;98109.23;;;21.80;26.23
51999;BME280;38015;50.924;11.598;2023-03-13T06:31:45;98090.36;;;21.79;26.27
51999;BME280;38015;50.924;11.598;2023-03-13T06:34:16;98079.65;;;21.86;26.15
51999;BME280;38015;50.924;11.598;2023-03-13T06:36:46;98073.58;;;21.80;26.31
51999;BME280;38015;50.924;11.598;2023-03-13T06:39:17;98062.97;;;21.88;26.18
51999;BME280;38015;50.924;11.598;2023-03-13T06:41:47;98058.42;;;21.81;26.31
51999;BME280;38015;50.924;11.598;2023-03-13T06:44:18;98068.25;;;21.78;26.42
51999;BME280;38015;50.924;11.598;2023-03-13T06:46:48;98083.01;;;21.80;26.46
51999;BME280;38015;50.924;11.598;2023-03-13T06:49:19;98083.21;;;21.78;26.54
51999;BME280;38015;50.924;11.598;2023-03-13T06:51:50;98059.16;;;21.81;26.46
51999;BME280;38015;50.924;11.598;2023-03-13T06:54:19;98069.23;;;21.68;26.72
51999;BME280;38015;50.924;11.598;2023-03-13T06:56:50;98080.12;;;21.82;26.50
51999;BME280;38015;50.924;11.598;2023-03-13T06:59:20;98101.62;;;21.73;26.73
51999;BME280;38015;50.924;11.598;2023-03-13T07:01:51;98120.70;;;21.76;27.42
51999;BME280;38015;50.924;11.598;2023-03-13T07:04:21;98123.64;;;21.17;28.94
51999;BME280;38015;50.924;11.598;2023-03-13T07:06:52;98116.10;;;21.00;29.55
51999;BME280;38015;50.924;11.598;2023-03-13T07:09:24;98123.15;;;20.90;29.84
51999;BME280;38015;50.924;11.598;2023-03-13T07:11:53;98127.47;;;20.70;30.22
51999;BME280;38015;50.924;11.598;2023-03-13T07:14:23;98126.34;;;20.65;30.44
51999;BME280;38015;50.924;11.598;2023-03-13T07:16:54;98119.00;;;20.94;29.94
51999;BME280;38015;50.924;11.598;2023-03-13T07:19:24;98125.04;;;20.84;30.20
51999;BME280;38015;50.924;11.598;2023-03-13T07:21:55;98139.86;;;20.80;30.47
51999;BME280;38015;50.924;11.598;2023-03-13T07:24:25;98124.61;;;20.79;30.72
51999;BME280;38015;50.924;11.598;2023-03-13T07:26:57;98120.98;;;21.05;30.39
51999;BME280;38015;50.924;11.598;2023-03-13T07:29:26;98107.76;;;20.73;30.99
51999;BME280;38015;50.924;11.598;2023-03-13T07:31:56;98087.49;;;20.77;30.96
51999;BME280;38015;50.924;11.598;2023-03-13T07:34:27;98082.98;;;20.70;31.12
51999;BME280;38015;50.924;11.598;2023-03-13T07:36:57;98072.61;;;20.76;31.06
51999;BME280;38015;50.924;11.598;2023-03-13T07:39:28;98068.99;;;20.96;30.96
51999;BME280;38015;50.924;11.598;2023-03-13T07:41:58;98060.71;;;20.85;31.18
51999;BME280;38015;50.924;11.598;2023-03-13T07:44:29;98072.61;;;20.62;31.75
51999;BME280;38015;50.924;11.598;2023-03-13T07:47:00;98063.81;;;20.75;31.39
51999;BME280;38015;50.924;11.598;2023-03-13T07:49:30;98075.44;;;20.70;31.34
51999;BME280;38015;50.924;11.598;2023-03-13T07:52:02;98084.32;;;20.59;31.44
51999;BME280;38015;50.924;11.598;2023-03-13T07:54:31;98071.35;;;20.91;30.97
51999;BME280;38015;50.924;11.598;2023-03-13T07:57:01;98075.48;;;20.95;30.81
51999;BME280;38015;50.924;11.598;2023-03-13T07:59:32;98079.07;;;21.62;29.79
51999;BME280;38015;50.924;11.598;2023-03-13T08:02:02;98087.58;;;22.03;28.93
51999;BME280;38015;50.924;11.598;2023-03-13T08:04:33;98092.21;;;22.16;28.69
51999;BME280;38015;50.924;11.598;2023-03-13T08:07:07;98100.06;;;22.17;28.63
51999;BME280;38015;50.924;11.598;2023-03-13T08:09:34;98095.25;;;22.10;28.65
51999;BME280;38015;50.924;11.598;2023-03-13T08:12:05;98094.03;;;22.17;28.47
51999;BME280;38015;50.924;11.598;2023-03-13T08:14:35;98092.41;;;22.13;28.57
51999;BME280;38015;50.924;11.598;2023-03-13T08:17:07;98087.78;;;22.24;28.31
51999;BME280;38015;50.924;11.598;2023-03-13T08:19:37;98088.72;;;22.29;28.21
51999;BME280;38015;50.924;11.598;2023-03-13T08:22:06;98084.15;;;22.35;28.07
51999;BME280;38015;50.924;11.598;2023-03-13T08:24:36;98107.55;;;22.33;28.06
51999;BME280;38015;50.924;11.598;2023-03-13T08:27:07;98116.98;;;22.32;28.07
51999;BME280;38015;50.924;11.598;2023-03-13T08:29:37;98114.69;;;22.31;28.08
51999;BME280;38015;50.924;11.598;2023-03-13T08:32:08;98116.29;;;22.30;28.04
51999;BME280;38015;50.924;11.598;2023-03-13T08:34:38;98123.47;;;22.25;28.13
51999;BME280;38015;50.924;11.598;2023-03-13T08:37:09;98118.55;;;22.30;27.98
51999;BME280;38015;50.924;11.598;2023-03-13T08:39:39;98104.25;;;22.33;27.94
51999;BME280;38015;50.924;11.598;2023-03-13T08:42:11;98102.45;;;22.30;27.95
51999;BME280;38015;50.924;11.598;2023-03-13T08:44:40;98108.05;;;22.30;27.89
51999;BME280;38015;50.924;11.598;2023-03-13T08:47:11;98105.91;;;22.27;27.91
51999;BME280;38015;50.924;11.598;2023-03-13T08:49:43;98097.08;;;22.41;27.68
51999;BME280;38015;50.924;11.598;2023-03-13T08:52:11;98079.96;;;22.35;27.78
51999;BME280;38015;50.924;11.598;2023-03-13T08:54:42;98076.66;;;22.34;27.89
51999;BME280;38015;50.924;11.598;2023-03-13T08:57:12;98074.00;;;22.38;27.90
51999;BME280;38015;50.924;11.598;2023-03-13T08:59:42;98074.55;;;22.39;27.91
51999;BME280;38015;50.924;11.598;2023-03-13T09:02:13;98080.42;;;22.40;27.86
51999;BME280;38015;50.924;11.598;2023-03-13T09:04:44;98057.40;;;22.36;27.91
51999;BME280;38015;50.924;11.598;2023-03-13T09:07:14;98037.65;;;22.38;27.80
51999;BME280;38015;50.924;11.598;2023-03-13T09:09:44;98025.81;;;22.31;27.94
51999;BME280;38015;50.924;11.598;2023-03-13T09:12:15;98037.94;;;22.42;27.78
51999;BME280;38015;50.924;11.598;2023-03-13T09:14:47;98036.51;;;22.44;27.72
51999;BME280;38015;50.924;11.598;2023-03-13T09:17:16;98050.25;;;22.31;27.86
51999;BME280;38015;50.924;11.598;2023-03-13T09:19:46;98054.41;;;22.42;27.76
51999;BME280;38015;50.924;11.598;2023-03-13T09:22:17;98059.86;;;22.37;27.84
51999;BME280;38015;50.924;11.598;2023-03-13T09:24:47;98058.50;;;22.46;27.67
51999;BME280;38015;50.924;11.598;2023-03-13T09:27:17;98048.36;;;22.43;27.71
51999;BME280;38015;50.924;11.598;2023-03-13T09:29:48;98059.51;;;22.41;27.73
51999;BME280;38015;50.924;11.598;2023-03-13T09:32:19;98066.19;;;22.47;27.55
51999;BME280;38015;50.924;11.598;2023-03-13T09:34:49;98053.90;;;22.52;27.52
51999;BME280;38015;50.924;11.598;2023-03-13T09:37:19;98064.68;;;22.50;27.59
51999;BME280;38015;50.924;11.598;2023-03-13T09:39:50;98070.29;;;22.47;27.65
51999;BME280;38015;50.924;11.598;2023-03-13T09:42:27;98072.53;;;22.46;27.68
51999;BME280;38015;50.924;11.598;2023-03-13T09:44:54;98078.25;;;22.54;27.56
51999;BME280;38015;50.924;11.598;2023-03-13T09:47:24;98069.22;;;22.52;27.59
51999;BME280;38015;50.924;11.598;2023-03-13T09:49:54;98077.67;;;22.51;27.61
51999;BME280;38015;50.924;11.598;2023-03-13T09:52:23;98070.77;;;22.48;27.67
51999;BME280;38015;50.924;11.598;2023-03-13T09:54:58;98078.57;;;22.44;27.75
51999;BME280;38015;50.924;11.598;2023-03-13T09:57:31;98080.43;;;22.42;27.80
51999;BME280;38015;50.924;11.598;2023-03-13T09:59:59;98073.77;;;22.47;27.75
51999;BME280;38015;50.924;11.598;2023-03-13T10:02:30;98079.45;;;22.46;27.76
51999;BME280;38015;50.924;11.598;2023-03-13T10:05:02;98093.56;;;22.42;27.86
51999;BME280;38015;50.924;11.598;2023-03-13T10:07:26;98091.52;;;22.47;27.80
51999;BME280;38015;50.924;11.598;2023-03-13T10:09:56;98100.35;;;22.45;27.85
51999;BME280;38015;50.924;11.598;2023-03-13T10:12:27;98102.68;;;22.46;27.87
51999;BME280;38015;50.924;11.598;2023-03-13T10:17:31;98100.64;;;22.53;27.76
51999;BME280;38015;50.924;11.598;2023-03-13T10:20:00;98100.80;;;22.49;27.78
51999;BME280;38015;50.924;11.598;2023-03-13T10:22:30;98104.69;;;22.54;27.71
51999;BME280;38015;50.924;11.598;2023-03-13T10:25:03;98104.85;;;22.49;27.78
51999;BME280;38015;50.924;11.598;2023-03-13T10:27:29;98107.01;;;22.50;27.77
51999;BME280;38015;50.924;11.598;2023-03-13T10:29:59;98109.32;;;22.50;27.81
51999;BME280;38015;50.924;11.598;2023-03-13T10:32:30;98102.83;;;22.50;27.81
51999;BME280;38015;50.924;11.598;2023-03-13T10:35:01;98097.19;;;22.52;27.81
51999;BME280;38015;50.924;11.598;2023-03-13T10:37:40;98093.81;;;22.49;27.89
51999;BME280;38015;50.924;11.598;2023-03-13T10:42:35;98081.21;;;22.52;27.89
51999;BME280;38015;50.924;11.598;2023-03-13T10:45:04;98078.12;;;22.50;27.93
51999;BME280;38015;50.924;11.598;2023-03-13T10:47:35;98054.36;;;22.57;27.86
51999;BME280;38015;50.924;11.598;2023-03-13T10:50:05;98052.13;;;22.53;27.96
51999;BME280;38015;50.924;11.598;2023-03-13T10:52:40;98041.37;;;22.55;27.94
51999;BME280;38015;50.924;11.598;2023-03-13T10:55:06;98046.34;;;22.07;29.00
51999;BME280;38015;50.924;11.598;2023-03-13T10:57:37;98041.22;;;21.65;30.49
51999;BME280;38015;50.924;11.598;2023-03-13T11:02:37;98040.83;;;21.62;31.50
51999;BME280;38015;50.924;11.598;2023-03-13T11:07:37;98027.55;;;22.57;29.48
51999;BME280;38015;50.924;11.598;2023-03-13T11:10:16;98017.63;;;22.61;29.57
51999;BME280;38015;50.924;11.598;2023-03-13T11:12:43;98022.44;;;22.68;29.56
51999;BME280;38015;50.924;11.598;2023-03-13T11:15:14;98006.45;;;22.75;29.45
51999;BME280;38015;50.924;11.598;2023-03-13T11:17:39;97999.18;;;22.73;29.51
51999;BME280;38015;50.924;11.598;2023-03-13T11:20:21;97994.80;;;22.79;29.50
51999;BME280;38015;50.924;11.598;2023-03-13T11:22:47;97978.66;;;22.71;29.65
51999;BME280;38015;50.924;11.598;2023-03-13T11:25:19;97991.00;;;22.77;29.52
51999;BME280;38015;50.924;11.598;2023-03-13T11:27:44;97984.87;;;22.79;29.41
51999;BME280;38015;50.924;11.598;2023-03-13T11:30:21;97986.04;;;22.79;29.34
51999;BME280;38015;50.924;11.598;2023-03-13T11:32:44;97987.15;;;22.78;29.28
51999;BME280;38015;50.924;11.598;2023-03-13T11:35:25;97985.75;;;22.85;29.08
51999;BME280;38015;50.924;11.598;2023-03-13T11:37:43;97976.03;;;22.92;28.92
51999;BME280;38015;50.924;11.598;2023-03-13T11:40:17;97985.28;;;22.93;28.91
51999;BME280;38015;50.924;11.598;2023-03-13T11:42:58;97969.91;;;22.87;28.96
51999;BME280;38015;50.924;11.598;2023-03-13T11:45:28;97972.54;;;22.92;28.86
51999;BME280;38015;50.924;11.598;2023-03-13T11:47:54;97968.70;;;22.95;28.78
51999;BME280;38015;50.924;11.598;2023-03-13T11:50:25;97970.44;;;23.00;28.72
51999;BME280;38015;50.924;11.598;2023-03-13T11:52:57;97976.30;;;22.92;28.82
51999;BME280;38015;50.924;11.598;2023-03-13T11:55:24;97978.64;;;22.97;28.69
51999;BME280;38015;50.924;11.598;2023-03-13T11:57:54;97976.15;;;22.90;28.81
51999;BME280;38015;50.924;11.598;2023-03-13T12:00:21;97978.61;;;22.98;28.67
51999;BME280;38015;50.924;11.598;2023-03-13T12:02:50;97972.87;;;22.90;28.79
51999;BME280;38015;50.924;11.598;2023-03-13T12:05:19;97990.65;;;22.96;28.65
51999;BME280;38015;50.924;11.598;2023-03-13T12:07:52;97972.85;;;22.96;28.62
51999;BME280;38015;50.924;11.598;2023-03-13T12:10:21;97961.56;;;22.89;28.73
51999;BME280;38015;50.924;11.598;2023-03-13T12:12:52;97953.61;;;22.89;28.72
51999;BME280;38015;50.924;11.598;2023-03-13T12:15:22;97945.08;;;22.82;28.83
51999;BME280;38015;50.924;11.598;2023-03-13T12:17:55;97936.74;;;22.89;28.69
51999;BME280;38015;50.924;11.598;2023-03-13T12:20:23;97929.30;;;22.81;28.83
51999;BME280;38015;50.924;11.598;2023-03-13T12:22:57;97928.98;;;22.90;28.67
51999;BME280;38015;50.924;11.598;2023-03-13T12:25:24;97945.01;;;22.91;28.64
51999;BME280;38015;50.924;11.598;2023-03-13T12:27:54;97938.36;;;22.91;28.66
51999;BME280;38015;50.924;11.598;2023-03-13T12:30:30;97924.85;;;22.88;28.71
51999;BME280;38015;50.924;11.598;2023-03-13T12:32:58;97915.38;;;22.96;28.61
51999;BME280;38015;50.924;11.598;2023-03-13T12:35:27;97907.58;;;22.86;29.15
51999;BME280;38015;50.924;11.598;2023-03-13T12:38:00;97902.36;;;22.80;29.37
51999;BME280;38015;50.924;11.598;2023-03-13T12:40:30;97895.87;;;22.79;29.44
51999;BME280;38015;50.924;11.598;2023-03-13T12:42:57;97890.65;;;22.39;30.18
51999;BME280;38015;50.924;11.598;2023-03-13T12:45:26;97901.51;;;22.89;29.33
51999;BME280;38015;50.924;11.598;2023-03-13T12:48:05;97903.61;;;22.92;29.32
51999;BME280;38015;50.924;11.598;2023-03-13T12:50:38;97911.53;;;23.03;29.16
51999;BME280;38015;50.924;11.598;2023-03-13T12:53:14;97898.51;;;23.06;29.19
51999;BME280;38015;50.924;11.598;2023-03-13T12:55:41;97909.30;;;22.98;29.61
51999;BME280;38015;50.924;11.598;2023-03-13T12:58:09;97904.61;;;23.08;29.42
51999;BME280;38015;50.924;11.598;2023-03-13T13:00:30;97906.33;;;23.11;29.40
51999;BME280;38015;50.924;11.598;2023-03-13T13:03:08;97907.21;;;23.14;29.41
51999;BME280;38015;50.924;11.598;2023-03-13T13:05:29;97902.10;;;23.12;29.61
51999;BME280;38015;50.924;11.598;2023-03-13T13:07:59;97909.40;;;23.20;29.52
51999;BME280;38015;50.924;11.598;2023-03-13T13:10:30;97916.98;;;23.16;29.66
51999;BME280;38015;50.924;11.598;2023-03-13T13:15:32;97924.46;;;23.20;29.80
51999;BME280;38015;50.924;11.598;2023-03-13T13:18:12;97926.56;;;23.22;29.63
51999;BME280;38015;50.924;11.598;2023-03-13T13:20:42;97922.76;;;23.18;29.66